sensor_id;sensor_type;location;lat;lon;timestamp;temperature;humidity
2002;DHT22;1003;48.002;7.788;2023-08-06T00:02:12;16.60;99.90
2002;DHT22;1003;48.002;7.788;2023-08-06T00:04:39;16.50;99.90
2002;DHT22;1003;48.002;7.788;2023-08-06T00:07:07;16.30;99.90
2002;DHT22;1003;48.002;7.788;2023-08-06T00:09:34;16.30;99.90
2002;DHT22;1003;48.002;7.788;2023-08-06T00:12:01;16.20;99.90
2002;DHT22;1003;48.002;7.788;2023-08-06T00:14:28;16.10;99.90
2002;DHT22;1003;48.002;7.788;2023-08-06T00:16:55;16.00;99.90
2002;DHT22;1003;48.002;7.788;2023-08-06T00:19:22;16.00;99.90
2002;DHT22;1003;48.002;7.788;2023-08-06T00:21:49;15.90;99.90
2002;DHT22;1003;48.002;7.788;2023-08-06T00:24:17;15.90;99.90
2002;DHT22;1003;48.002;7.788;2023-08-06T00:26:44;15.80;99.90
2002;DHT22;1003;48.002;7.788;2023-08-06T00:29:11;15.80;99.90
2002;DHT22;1003;48.002;7.788;2023-08-06T00:31:39;15.70;99.90
2002;DHT22;1003;48.002;7.788;2023-08-06T00:34:06;15.80;99.90
2002;DHT22;1003;48.002;7.788;2023-08-06T00:36:33;15.80;99.90
2002;DHT22;1003;48.002;7.788;2023-08-06T00:39:01;15.80;99.90
2002;DHT22;1003;48.002;7.788;2023-08-06T00:41:29;15.70;99.90
2002;DHT22;1003;48.002;7.788;2023-08-06T00:43:56;15.70;99.90
2002;DHT22;1003;48.002;7.788;2023-08-06T00:46:23;15.70;99.90
2002;DHT22;1003;48.002;7.788;2023-08-06T00:48:51;15.60;99.90
2002;DHT22;1003;48.002;7.788;2023-08-06T00:51:19;15.60;99.90
2002;DHT22;1003;48.002;7.788;2023-08-06T00:53:47;15.60;99.90
2002;DHT22;1003;48.002;7.788;2023-08-06T00:56:16;15.60;99.90
2002;DHT22;1003;48.002;7.788;2023-08-06T00:58:45;15.50;99.90
2002;DHT22;1003;48.002;7.788;2023-08-06T01:01:23;15.50;99.90
2002;DHT22;1003;48.002;7.788;2023-08-06T01:03:50;15.50;99.90
2002;DHT22;1003;48.002;7.788;2023-08-06T01:06:19;15.50;99.90
2002;DHT22;1003;48.002;7.788;2023-08-06T01:09:01;15.60;99.90
2002;DHT22;1003;48.002;7.788;2023-08-06T01:11:43;15.50;99.90
2002;DHT22;1003;48.002;7.788;2023-08-06T01:14:26;15.60;99.90
2002;DHT22;1003;48.002;7.788;2023-08-06T01:16:58;15.70;99.90
2002;DHT22;1003;48.002;7.788;2023-08-06T01:19:28;15.80;99.90
2002;DHT22;1003;48.002;7.788;2023-08-06T01:21:56;15.80;99.90
2002;DHT22;1003;48.002;7.788;2023-08-06T01:24:23;15.80;99.90
2002;DHT22;1003;48.002;7.788;2023-08-06T01:26:55;15.80;99.90
2002;DHT22;1003;48.002;7.788;2023-08-06T01:29:34;15.80;99.90
2002;DHT22;1003;48.002;7.788;2023-08-06T01:32:04;15.80;99.90
2002;DHT22;1003;48.002;7.788;2023-08-06T01:34:34;15.90;99.90
2002;DHT22;1003;48.002;7.788;2023-08-06T01:37:04;15.90;99.90
2002;DHT22;1003;48.002;7.788;2023-08-06T01:39:33;16.00;99.90
2002;DHT22;1003;48.002;7.788;2023-08-06T01:42:00;16.00;99.90
2002;DHT22;1003;48.002;7.788;2023-08-06T01:44:27;16.00;99.90
2002;DHT22;1003;48.002;7.788;2023-08-06T01:46:54;16.00;99.90
2002;DHT22;1003;48.002;7.788;2023-08-06T01:49:21;15.90;99.90
2002;DHT22;1003;48.002;7.788;2023-08-06T01:51:49;16.00;99.90
2002;DHT22;1003;48.002;7.788;2023-08-06T01:54:17;16.00;99.90
2002;DHT22;1003;48.002;7.788;2023-08-06T01:56:44;16.00;99.90
2002;DHT22;1003;48.002;7.788;2023-08-06T01:59:11;16.00;99.90
2002;DHT22;1003;48.002;7.788;2023-08-06T02:01:38;16.00;99.90
2002;DHT22;1003;48.002;7.788;2023-08-06T02:04:05;16.00;99.90
2002;DHT22;1003;48.002;7.788;2023-08-06T02:06:32;16.10;99.90
2002;DHT22;1003;48.002;7.788;2023-08-06T02:08:59;16.10;99.90
2002;DHT22;1003;48.002;7.788;2023-08-06T02:11:27;16.00;99.90
2002;DHT22;1003;48.002;7.788;2023-08-06T02:13:54;16.00;99.90
2002;DHT22;1003;48.002;7.788;2023-08-06T02:16:21;16.00;99.90
2002;DHT22;1003;48.002;7.788;2023-08-06T02:18:48;15.90;99.90
2002;DHT22;1003;48.002;7.788;2023-08-06T02:21:15;15.90;99.90
2002;DHT22;1003;48.002;7.788;2023-08-06T02:23:45;15.80;99.90
2002;DHT22;1003;48.002;7.788;2023-08-06T02:26:12;15.80;99.90
2002;DHT22;1003;48.002;7.788;2023-08-06T02:28:44;15.70;99.90
2002;DHT22;1003;48.002;7.788;2023-08-06T02:31:11;15.60;99.90
2002;DHT22;1003;48.002;7.788;2023-08-06T02:33:38;15.60;99.90
2002;DHT22;1003;48.002;7.788;2023-08-06T02:36:05;15.60;99.90
2002;DHT22;1003;48.002;7.788;2023-08-06T02:38:32;15.60;99.90
2002;DHT22;1003;48.002;7.788;2023-08-06T02:41:02;15.50;99.90
2002;DHT22;1003;48.002;7.788;2023-08-06T02:43:29;15.50;99.90
2002;DHT22;1003;48.002;7.788;2023-08-06T02:45:58;15.40;99.90
2002;DHT22;1003;48.002;7.788;2023-08-06T02:48:26;15.40;99.90
2002;DHT22;1003;48.002;7.788;2023-08-06T02:50:56;15.40;99.90
2002;DHT22;1003;48.002;7.788;2023-08-06T02:53:24;15.30;99.90
2002;DHT22;1003;48.002;7.788;2023-08-06T02:55:51;15.30;99.90
2002;DHT22;1003;48.002;7.788;2023-08-06T02:58:19;15.20;99.90
2002;DHT22;1003;48.002;7.788;2023-08-06T03:01:00;15.20;99.90
2002;DHT22;1003;48.002;7.788;2023-08-06T03:03:28;15.20;99.90
2002;DHT22;1003;48.002;7.788;2023-08-06T03:05:56;15.20;99.90
2002;DHT22;1003;48.002;7.788;2023-08-06T03:08:23;15.10;99.90
2002;DHT22;1003;48.002;7.788;2023-08-06T03:10:50;14.90;99.90
2002;DHT22;1003;48.002;7.788;2023-08-06T03:13:18;14.90;99.90
2002;DHT22;1003;48.002;7.788;2023-08-06T03:15:52;14.80;99.90
2002;DHT22;1003;48.002;7.788;2023-08-06T03:18:21;14.70;99.90
2002;DHT22;1003;48.002;7.788;2023-08-06T03:20:49;14.80;99.90
2002;DHT22;1003;48.002;7.788;2023-08-06T03:23:16;14.70;99.90
2002;DHT22;1003;48.002;7.788;2023-08-06T03:25:43;14.60;99.90
2002;DHT22;1003;48.002;7.788;2023-08-06T03:28:10;14.60;99.90
2002;DHT22;1003;48.002;7.788;2023-08-06T03:30:37;14.50;99.90
2002;DHT22;1003;48.002;7.788;2023-08-06T03:33:05;14.50;99.90
2002;DHT22;1003;48.002;7.788;2023-08-06T03:35:33;14.50;99.90
2002;DHT22;1003;48.002;7.788;2023-08-06T03:38:00;14.40;99.90
2002;DHT22;1003;48.002;7.788;2023-08-06T03:40:27;14.40;99.90
2002;DHT22;1003;48.002;7.788;2023-08-06T03:42:54;14.30;99.90
2002;DHT22;1003;48.002;7.788;2023-08-06T03:45:21;14.30;99.90
2002;DHT22;1003;48.002;7.788;2023-08-06T03:47:48;14.20;99.90
2002;DHT22;1003;48.002;7.788;2023-08-06T03:50:15;14.20;99.90
2002;DHT22;1003;48.002;7.788;2023-08-06T03:52:44;14.20;99.90
2002;DHT22;1003;48.002;7.788;2023-08-06T03:55:11;14.10;99.90
2002;DHT22;1003;48.002;7.788;2023-08-06T03:57:38;14.00;99.90
2002;DHT22;1003;48.002;7.788;2023-08-06T04:00:06;13.90;99.90
2002;DHT22;1003;48.002;7.788;2023-08-06T04:02:34;13.80;99.90
2002;DHT22;1003;48.002;7.788;2023-08-06T04:05:01;13.70;99.90
2002;DHT22;1003;48.002;7.788;2023-08-06T04:07:28;13.70;99.90
2002;DHT22;1003;48.002;7.788;2023-08-06T04:09:57;13.70;99.90
2002;DHT22;1003;48.002;7.788;2023-08-06T04:12:25;13.60;99.90
2002;DHT22;1003;48.002;7.788;2023-08-06T04:14:53;13.60;99.90
2002;DHT22;1003;48.002;7.788;2023-08-06T04:17:21;13.60;99.90
2002;DHT22;1003;48.002;7.788;2023-08-06T04:19:50;13.70;99.90
2002;DHT22;1003;48.002;7.788;2023-08-06T04:22:19;13.70;99.90
2002;DHT22;1003;48.002;7.788;2023-08-06T04:24:46;13.70;99.90
2002;DHT22;1003;48.002;7.788;2023-08-06T04:27:16;13.80;99.90
2002;DHT22;1003;48.002;7.788;2023-08-06T04:29:43;13.80;99.90
2002;DHT22;1003;48.002;7.788;2023-08-06T04:32:10;13.90;99.90
2002;DHT22;1003;48.002;7.788;2023-08-06T04:34:38;13.90;99.90
2002;DHT22;1003;48.002;7.788;2023-08-06T04:37:06;13.90;99.90
2002;DHT22;1003;48.002;7.788;2023-08-06T04:39:33;13.90;99.90
2002;DHT22;1003;48.002;7.788;2023-08-06T04:42:00;14.00;99.90
2002;DHT22;1003;48.002;7.788;2023-08-06T04:44:29;14.00;99.90
2002;DHT22;1003;48.002;7.788;2023-08-06T04:46:56;14.00;99.90
2002;DHT22;1003;48.002;7.788;2023-08-06T04:49:23;14.00;99.90
2002;DHT22;1003;48.002;7.788;2023-08-06T04:51:51;14.00;99.90
2002;DHT22;1003;48.002;7.788;2023-08-06T04:54:18;14.00;99.90
2002;DHT22;1003;48.002;7.788;2023-08-06T04:56:45;14.00;99.90
2002;DHT22;1003;48.002;7.788;2023-08-06T04:59:12;14.00;99.90
2002;DHT22;1003;48.002;7.788;2023-08-06T05:01:43;14.00;99.90
2002;DHT22;1003;48.002;7.788;2023-08-06T05:04:10;13.90;99.90
2002;DHT22;1003;48.002;7.788;2023-08-06T05:06:37;13.90;99.90
2002;DHT22;1003;48.002;7.788;2023-08-06T05:09:05;13.80;99.90
2002;DHT22;1003;48.002;7.788;2023-08-06T05:11:32;13.80;99.90
2002;DHT22;1003;48.002;7.788;2023-08-06T05:13:59;13.90;99.90
2002;DHT22;1003;48.002;7.788;2023-08-06T05:16:26;13.80;99.90
2002;DHT22;1003;48.002;7.788;2023-08-06T05:18:55;13.70;99.90
2002;DHT22;1003;48.002;7.788;2023-08-06T05:21:22;13.60;99.90
2002;DHT22;1003;48.002;7.788;2023-08-06T05:23:49;13.60;99.90
2002;DHT22;1003;48.002;7.788;2023-08-06T05:26:16;13.60;99.90
2002;DHT22;1003;48.002;7.788;2023-08-06T05:28:45;13.60;99.90
2002;DHT22;1003;48.002;7.788;2023-08-06T05:31:12;13.60;99.90
2002;DHT22;1003;48.002;7.788;2023-08-06T05:33:39;13.70;99.90
2002;DHT22;1003;48.002;7.788;2023-08-06T05:36:08;13.70;99.90
2002;DHT22;1003;48.002;7.788;2023-08-06T05:38:35;13.80;99.90
2002;DHT22;1003;48.002;7.788;2023-08-06T05:41:02;13.90;99.90
2002;DHT22;1003;48.002;7.788;2023-08-06T05:43:29;13.90;99.90
2002;DHT22;1003;48.002;7.788;2023-08-06T05:45:56;13.90;99.90
2002;DHT22;1003;48.002;7.788;2023-08-06T05:48:23;13.80;99.90
2002;DHT22;1003;48.002;7.788;2023-08-06T05:50:51;13.80;99.90
2002;DHT22;1003;48.002;7.788;2023-08-06T05:53:19;13.80;99.90
2002;DHT22;1003;48.002;7.788;2023-08-06T05:55:47;13.80;99.90
2002;DHT22;1003;48.002;7.788;2023-08-06T05:58:14;13.80;99.90
2002;DHT22;1003;48.002;7.788;2023-08-06T06:00:41;13.80;99.90
2002;DHT22;1003;48.002;7.788;2023-08-06T06:03:08;13.80;99.90
2002;DHT22;1003;48.002;7.788;2023-08-06T06:05:37;13.90;99.90
2002;DHT22;1003;48.002;7.788;2023-08-06T06:08:05;14.10;99.90
2002;DHT22;1003;48.002;7.788;2023-08-06T06:10:34;14.20;99.90
2002;DHT22;1003;48.002;7.788;2023-08-06T06:13:01;14.30;99.90
2002;DHT22;1003;48.002;7.788;2023-08-06T06:15:28;14.40;99.90
2002;DHT22;1003;48.002;7.788;2023-08-06T06:17:55;14.50;99.90
2002;DHT22;1003;48.002;7.788;2023-08-06T06:20:22;14.40;99.90
2002;DHT22;1003;48.002;7.788;2023-08-06T06:22:49;14.30;99.90
2002;DHT22;1003;48.002;7.788;2023-08-06T06:25:17;14.20;99.90
2002;DHT22;1003;48.002;7.788;2023-08-06T06:27:46;14.20;99.90
2002;DHT22;1003;48.002;7.788;2023-08-06T06:30:16;14.10;99.90
2002;DHT22;1003;48.002;7.788;2023-08-06T06:32:43;14.10;99.90
2002;DHT22;1003;48.002;7.788;2023-08-06T06:35:10;14.00;99.90
2002;DHT22;1003;48.002;7.788;2023-08-06T06:37:37;14.00;99.90
2002;DHT22;1003;48.002;7.788;2023-08-06T06:40:05;14.10;99.90
2002;DHT22;1003;48.002;7.788;2023-08-06T06:42:32;14.10;99.90
2002;DHT22;1003;48.002;7.788;2023-08-06T06:45:01;14.00;99.90
2002;DHT22;1003;48.002;7.788;2023-08-06T06:47:28;14.00;99.90
2002;DHT22;1003;48.002;7.788;2023-08-06T06:49:55;14.00;99.90
2002;DHT22;1003;48.002;7.788;2023-08-06T06:52:22;13.90;99.90
2002;DHT22;1003;48.002;7.788;2023-08-06T06:54:49;13.90;99.90
2002;DHT22;1003;48.002;7.788;2023-08-06T06:57:16;13.90;99.90
2002;DHT22;1003;48.002;7.788;2023-08-06T06:59:43;13.90;99.90
2002;DHT22;1003;48.002;7.788;2023-08-06T07:02:11;13.90;99.90
2002;DHT22;1003;48.002;7.788;2023-08-06T07:04:38;13.90;99.90
2002;DHT22;1003;48.002;7.788;2023-08-06T07:07:05;13.90;99.90
2002;DHT22;1003;48.002;7.788;2023-08-06T07:09:32;14.00;99.90
2002;DHT22;1003;48.002;7.788;2023-08-06T07:11:59;14.00;99.90
2002;DHT22;1003;48.002;7.788;2023-08-06T07:14:28;14.00;99.90
2002;DHT22;1003;48.002;7.788;2023-08-06T07:16:55;14.10;99.90
2002;DHT22;1003;48.002;7.788;2023-08-06T07:19:23;14.10;99.90
2002;DHT22;1003;48.002;7.788;2023-08-06T07:21:50;14.20;99.90
2002;DHT22;1003;48.002;7.788;2023-08-06T07:24:17;14.20;99.90
2002;DHT22;1003;48.002;7.788;2023-08-06T07:26:44;14.20;99.90
2002;DHT22;1003;48.002;7.788;2023-08-06T07:29:11;14.30;99.90
2002;DHT22;1003;48.002;7.788;2023-08-06T07:31:45;14.40;99.90
2002;DHT22;1003;48.002;7.788;2023-08-06T07:34:12;14.40;99.90
2002;DHT22;1003;48.002;7.788;2023-08-06T07:36:45;14.40;99.90
2002;DHT22;1003;48.002;7.788;2023-08-06T07:39:12;14.40;99.90
2002;DHT22;1003;48.002;7.788;2023-08-06T07:41:47;14.50;99.90
2002;DHT22;1003;48.002;7.788;2023-08-06T07:44:15;14.50;99.90
2002;DHT22;1003;48.002;7.788;2023-08-06T07:46:42;14.50;99.90
2002;DHT22;1003;48.002;7.788;2023-08-06T07:49:09;14.60;99.90
2002;DHT22;1003;48.002;7.788;2023-08-06T07:51:37;14.60;99.90
2002;DHT22;1003;48.002;7.788;2023-08-06T07:54:06;14.70;99.90
2002;DHT22;1003;48.002;7.788;2023-08-06T07:56:33;14.80;99.90
2002;DHT22;1003;48.002;7.788;2023-08-06T07:59:01;14.80;99.90
2002;DHT22;1003;48.002;7.788;2023-08-06T08:01:28;14.80;99.90
2002;DHT22;1003;48.002;7.788;2023-08-06T08:03:55;14.90;99.90
2002;DHT22;1003;48.002;7.788;2023-08-06T08:06:22;14.90;99.90
2002;DHT22;1003;48.002;7.788;2023-08-06T08:08:49;14.90;99.90
2002;DHT22;1003;48.002;7.788;2023-08-06T08:11:20;15.00;99.90
2002;DHT22;1003;48.002;7.788;2023-08-06T08:13:47;15.00;99.90
2002;DHT22;1003;48.002;7.788;2023-08-06T08:16:14;15.00;99.90
2002;DHT22;1003;48.002;7.788;2023-08-06T08:18:41;15.00;99.90
2002;DHT22;1003;48.002;7.788;2023-08-06T08:21:08;15.00;99.90
2002;DHT22;1003;48.002;7.788;2023-08-06T08:23:35;15.10;99.90
2002;DHT22;1003;48.002;7.788;2023-08-06T08:26:04;15.10;99.90
2002;DHT22;1003;48.002;7.788;2023-08-06T08:28:32;15.00;99.90
2002;DHT22;1003;48.002;7.788;2023-08-06T08:30:59;15.10;99.90
2002;DHT22;1003;48.002;7.788;2023-08-06T08:33:27;14.90;99.90
2002;DHT22;1003;48.002;7.788;2023-08-06T08:35:54;14.90;99.90
2002;DHT22;1003;48.002;7.788;2023-08-06T08:38:21;14.80;99.90
2002;DHT22;1003;48.002;7.788;2023-08-06T08:40:51;14.70;99.90
2002;DHT22;1003;48.002;7.788;2023-08-06T08:43:23;14.70;99.90
2002;DHT22;1003;48.002;7.788;2023-08-06T08:45:53;14.80;99.90
2002;DHT22;1003;48.002;7.788;2023-08-06T08:48:24;14.90;99.90
2002;DHT22;1003;48.002;7.788;2023-08-06T08:50:52;15.10;99.90
2002;DHT22;1003;48.002;7.788;2023-08-06T08:53:21;15.40;99.90
2002;DHT22;1003;48.002;7.788;2023-08-06T08:55:49;15.40;99.90
2002;DHT22;1003;48.002;7.788;2023-08-06T08:58:16;15.50;99.90
2002;DHT22;1003;48.002;7.788;2023-08-06T09:00:45;15.50;99.90
2002;DHT22;1003;48.002;7.788;2023-08-06T09:03:16;15.60;99.90
2002;DHT22;1003;48.002;7.788;2023-08-06T09:05:44;15.50;99.90
2002;DHT22;1003;48.002;7.788;2023-08-06T09:08:18;15.40;99.90
2002;DHT22;1003;48.002;7.788;2023-08-06T09:10:48;15.40;99.90
2002;DHT22;1003;48.002;7.788;2023-08-06T09:13:16;15.40;99.90
2002;DHT22;1003;48.002;7.788;2023-08-06T09:15:45;15.40;99.90
2002;DHT22;1003;48.002;7.788;2023-08-06T09:18:12;15.40;99.90
2002;DHT22;1003;48.002;7.788;2023-08-06T09:20:41;15.30;99.90
2002;DHT22;1003;48.002;7.788;2023-08-06T09:23:11;15.30;99.90
2002;DHT22;1003;48.002;7.788;2023-08-06T09:25:39;15.30;99.90
2002;DHT22;1003;48.002;7.788;2023-08-06T09:28:07;15.40;99.90
2002;DHT22;1003;48.002;7.788;2023-08-06T09:30:36;15.40;99.90
2002;DHT22;1003;48.002;7.788;2023-08-06T09:33:08;15.30;99.90
2002;DHT22;1003;48.002;7.788;2023-08-06T09:35:38;15.40;99.90
2002;DHT22;1003;48.002;7.788;2023-08-06T09:38:06;15.50;99.90
2002;DHT22;1003;48.002;7.788;2023-08-06T09:40:35;15.40;99.90
2002;DHT22;1003;48.002;7.788;2023-08-06T09:43:03;15.40;99.90
2002;DHT22;1003;48.002;7.788;2023-08-06T09:45:31;15.40;99.90
2002;DHT22;1003;48.002;7.788;2023-08-06T09:48:00;15.20;99.90
2002;DHT22;1003;48.002;7.788;2023-08-06T09:50:31;15.20;99.90
2002;DHT22;1003;48.002;7.788;2023-08-06T09:53:03;15.40;99.90
2002;DHT22;1003;48.002;7.788;2023-08-06T09:55:32;15.40;99.90
2002;DHT22;1003;48.002;7.788;2023-08-06T09:58:00;15.50;99.90
2002;DHT22;1003;48.002;7.788;2023-08-06T10:00:31;15.50;99.90
2002;DHT22;1003;48.002;7.788;2023-08-06T10:03:00;15.40;99.90
2002;DHT22;1003;48.002;7.788;2023-08-06T10:05:29;15.60;99.90
2002;DHT22;1003;48.002;7.788;2023-08-06T10:07:59;15.50;99.90
2002;DHT22;1003;48.002;7.788;2023-08-06T10:10:30;15.50;99.90
2002;DHT22;1003;48.002;7.788;2023-08-06T10:12:59;15.50;99.90
2002;DHT22;1003;48.002;7.788;2023-08-06T10:15:31;15.60;99.90
2002;DHT22;1003;48.002;7.788;2023-08-06T10:18:00;15.70;99.90
2002;DHT22;1003;48.002;7.788;2023-08-06T10:20:33;15.60;99.90
2002;DHT22;1003;48.002;7.788;2023-08-06T10:23:03;15.50;99.90
2002;DHT22;1003;48.002;7.788;2023-08-06T10:25:33;15.40;99.90
2002;DHT22;1003;48.002;7.788;2023-08-06T10:28:06;15.20;99.90
2002;DHT22;1003;48.002;7.788;2023-08-06T10:30:41;15.20;99.90
2002;DHT22;1003;48.002;7.788;2023-08-06T10:33:10;15.20;99.90
2002;DHT22;1003;48.002;7.788;2023-08-06T10:35:38;15.20;99.90
2002;DHT22;1003;48.002;7.788;2023-08-06T10:38:11;15.10;99.90
2002;DHT22;1003;48.002;7.788;2023-08-06T10:40:41;15.20;99.90
2002;DHT22;1003;48.002;7.788;2023-08-06T10:43:25;15.10;99.90
2002;DHT22;1003;48.002;7.788;2023-08-06T10:45:54;15.10;99.90
2002;DHT22;1003;48.002;7.788;2023-08-06T10:48:34;15.20;99.90
2002;DHT22;1003;48.002;7.788;2023-08-06T10:51:03;15.20;99.90
2002;DHT22;1003;48.002;7.788;2023-08-06T10:53:38;15.20;99.90
2002;DHT22;1003;48.002;7.788;2023-08-06T10:56:12;15.20;99.90
2002;DHT22;1003;48.002;7.788;2023-08-06T10:58:43;15.10;99.90
2002;DHT22;1003;48.002;7.788;2023-08-06T11:01:11;15.00;99.90
2002;DHT22;1003;48.002;7.788;2023-08-06T11:03:39;15.10;99.90
2002;DHT22;1003;48.002;7.788;2023-08-06T11:06:07;15.10;99.90
2002;DHT22;1003;48.002;7.788;2023-08-06T11:08:37;15.10;99.90
2002;DHT22;1003;48.002;7.788;2023-08-06T11:11:10;15.10;99.90
2002;DHT22;1003;48.002;7.788;2023-08-06T11:13:38;14.90;99.90
2002;DHT22;1003;48.002;7.788;2023-08-06T11:16:09;14.90;99.90
2002;DHT22;1003;48.002;7.788;2023-08-06T11:18:36;14.90;99.90
2002;DHT22;1003;48.002;7.788;2023-08-06T11:21:03;14.90;99.90
2002;DHT22;1003;48.002;7.788;2023-08-06T11:23:31;14.90;99.90
2002;DHT22;1003;48.002;7.788;2023-08-06T11:26:02;15.10;99.90
2002;DHT22;1003;48.002;7.788;2023-08-06T11:28:30;15.20;99.90
2002;DHT22;1003;48.002;7.788;2023-08-06T11:30:58;15.40;99.90
2002;DHT22;1003;48.002;7.788;2023-08-06T11:33:28;15.40;99.90
2002;DHT22;1003;48.002;7.788;2023-08-06T11:35:58;15.50;99.90
2002;DHT22;1003;48.002;7.788;2023-08-06T11:38:26;15.60;99.90
2002;DHT22;1003;48.002;7.788;2023-08-06T11:40:55;15.70;99.90
2002;DHT22;1003;48.002;7.788;2023-08-06T11:43:23;15.70;99.90
2002;DHT22;1003;48.002;7.788;2023-08-06T11:45:51;15.60;99.90
2002;DHT22;1003;48.002;7.788;2023-08-06T11:48:20;15.60;99.90
2002;DHT22;1003;48.002;7.788;2023-08-06T11:50:47;15.70;99.90
2002;DHT22;1003;48.002;7.788;2023-08-06T11:53:16;15.60;99.90
2002;DHT22;1003;48.002;7.788;2023-08-06T11:55:44;15.70;99.90
2002;DHT22;1003;48.002;7.788;2023-08-06T11:58:11;15.80;99.90
2002;DHT22;1003;48.002;7.788;2023-08-06T12:00:42;16.10;99.90
2002;DHT22;1003;48.002;7.788;2023-08-06T12:03:13;16.30;99.90
2002;DHT22;1003;48.002;7.788;2023-08-06T12:05:40;16.40;99.90
2002;DHT22;1003;48.002;7.788;2023-08-06T12:08:09;16.50;99.90
2002;DHT22;1003;48.002;7.788;2023-08-06T12:10:36;16.50;99.90
2002;DHT22;1003;48.002;7.788;2023-08-06T12:13:03;16.30;99.90
2002;DHT22;1003;48.002;7.788;2023-08-06T12:15:30;16.20;99.90
2002;DHT22;1003;48.002;7.788;2023-08-06T12:17:59;16.20;99.90
2002;DHT22;1003;48.002;7.788;2023-08-06T12:20:28;16.30;99.90
2002;DHT22;1003;48.002;7.788;2023-08-06T12:22:55;16.50;99.90
2002;DHT22;1003;48.002;7.788;2023-08-06T12:25:22;16.70;99.90
2002;DHT22;1003;48.002;7.788;2023-08-06T12:27:49;17.00;99.90
2002;DHT22;1003;48.002;7.788;2023-08-06T12:30:16;17.30;99.90
2002;DHT22;1003;48.002;7.788;2023-08-06T12:32:43;17.50;99.90
2002;DHT22;1003;48.002;7.788;2023-08-06T12:35:12;17.60;99.90
2002;DHT22;1003;48.002;7.788;2023-08-06T12:37:42;17.60;99.90
2002;DHT22;1003;48.002;7.788;2023-08-06T12:40:11;17.30;99.90
2002;DHT22;1003;48.002;7.788;2023-08-06T12:42:38;17.30;99.90
2002;DHT22;1003;48.002;7.788;2023-08-06T12:45:05;17.20;99.90
2002;DHT22;1003;48.002;7.788;2023-08-06T12:47:33;17.30;99.90
2002;DHT22;1003;48.002;7.788;2023-08-06T12:50:00;17.00;99.90
2002;DHT22;1003;48.002;7.788;2023-08-06T12:52:28;16.70;99.90
2002;DHT22;1003;48.002;7.788;2023-08-06T12:54:55;16.60;99.90
2002;DHT22;1003;48.002;7.788;2023-08-06T12:57:22;16.70;99.90
2002;DHT22;1003;48.002;7.788;2023-08-06T12:59:49;16.90;99.90
2002;DHT22;1003;48.002;7.788;2023-08-06T13:02:18;16.90;99.90
2002;DHT22;1003;48.002;7.788;2023-08-06T13:04:46;17.00;99.90
2002;DHT22;1003;48.002;7.788;2023-08-06T13:07:13;17.10;99.90
2002;DHT22;1003;48.002;7.788;2023-08-06T13:09:41;17.10;99.90
2002;DHT22;1003;48.002;7.788;2023-08-06T13:12:08;17.40;99.90
2002;DHT22;1003;48.002;7.788;2023-08-06T13:14:36;17.80;99.90
2002;DHT22;1003;48.002;7.788;2023-08-06T13:17:03;18.00;99.90
2002;DHT22;1003;48.002;7.788;2023-08-06T13:19:32;18.10;99.90
2002;DHT22;1003;48.002;7.788;2023-08-06T13:22:01;18.20;99.90
2002;DHT22;1003;48.002;7.788;2023-08-06T13:24:29;18.30;99.90
2002;DHT22;1003;48.002;7.788;2023-08-06T13:26:58;18.40;99.90
2002;DHT22;1003;48.002;7.788;2023-08-06T13:29:27;18.30;99.90
2002;DHT22;1003;48.002;7.788;2023-08-06T13:31:54;18.30;99.90
2002;DHT22;1003;48.002;7.788;2023-08-06T13:34:21;18.10;99.90
2002;DHT22;1003;48.002;7.788;2023-08-06T13:36:48;18.20;99.90
2002;DHT22;1003;48.002;7.788;2023-08-06T13:39:16;18.30;99.90
2002;DHT22;1003;48.002;7.788;2023-08-06T13:41:43;18.70;99.90
2002;DHT22;1003;48.002;7.788;2023-08-06T13:44:12;18.80;99.90
2002;DHT22;1003;48.002;7.788;2023-08-06T13:46:41;18.80;99.90
2002;DHT22;1003;48.002;7.788;2023-08-06T13:49:09;18.80;99.90
2002;DHT22;1003;48.002;7.788;2023-08-06T13:51:38;18.70;99.90
2002;DHT22;1003;48.002;7.788;2023-08-06T13:54:09;18.80;99.90
2002;DHT22;1003;48.002;7.788;2023-08-06T13:56:37;18.80;99.90
2002;DHT22;1003;48.002;7.788;2023-08-06T13:59:04;18.80;99.90
2002;DHT22;1003;48.002;7.788;2023-08-06T14:01:33;18.80;99.90
2002;DHT22;1003;48.002;7.788;2023-08-06T14:04:00;18.80;99.90
2002;DHT22;1003;48.002;7.788;2023-08-06T14:06:27;18.80;99.90
2002;DHT22;1003;48.002;7.788;2023-08-06T14:08:54;18.80;99.90
2002;DHT22;1003;48.002;7.788;2023-08-06T14:11:21;18.80;99.90
2002;DHT22;1003;48.002;7.788;2023-08-06T14:13:48;18.90;99.90
2002;DHT22;1003;48.002;7.788;2023-08-06T14:16:15;19.00;99.90
2002;DHT22;1003;48.002;7.788;2023-08-06T14:18:44;18.50;99.90
2002;DHT22;1003;48.002;7.788;2023-08-06T14:21:11;18.30;99.90
2002;DHT22;1003;48.002;7.788;2023-08-06T14:23:38;18.00;99.90
2002;DHT22;1003;48.002;7.788;2023-08-06T14:26:07;17.90;99.90
2002;DHT22;1003;48.002;7.788;2023-08-06T14:28:36;17.70;99.90
2002;DHT22;1003;48.002;7.788;2023-08-06T14:31:03;17.30;99.90
2002;DHT22;1003;48.002;7.788;2023-08-06T14:33:30;17.20;99.90
2002;DHT22;1003;48.002;7.788;2023-08-06T14:35:58;17.40;99.90
2002;DHT22;1003;48.002;7.788;2023-08-06T14:38:25;17.60;99.90
2002;DHT22;1003;48.002;7.788;2023-08-06T14:40:52;17.70;99.90
2002;DHT22;1003;48.002;7.788;2023-08-06T14:43:20;17.80;99.90
2002;DHT22;1003;48.002;7.788;2023-08-06T14:45:47;17.80;99.90
2002;DHT22;1003;48.002;7.788;2023-08-06T14:48:14;17.80;99.90
2002;DHT22;1003;48.002;7.788;2023-08-06T14:50:41;17.90;99.90
2002;DHT22;1003;48.002;7.788;2023-08-06T14:53:09;18.00;99.90
2002;DHT22;1003;48.002;7.788;2023-08-06T14:55:37;18.20;99.90
2002;DHT22;1003;48.002;7.788;2023-08-06T14:58:04;18.20;99.90
2002;DHT22;1003;48.002;7.788;2023-08-06T15:00:31;18.30;99.90
2002;DHT22;1003;48.002;7.788;2023-08-06T15:02:58;18.20;99.90
2002;DHT22;1003;48.002;7.788;2023-08-06T15:05:25;18.30;99.90
2002;DHT22;1003;48.002;7.788;2023-08-06T15:07:52;18.30;99.90
2002;DHT22;1003;48.002;7.788;2023-08-06T15:10:21;18.30;99.90
2002;DHT22;1003;48.002;7.788;2023-08-06T15:12:48;18.20;99.90
2002;DHT22;1003;48.002;7.788;2023-08-06T15:15:15;18.30;99.90
2002;DHT22;1003;48.002;7.788;2023-08-06T15:17:42;18.20;99.90
2002;DHT22;1003;48.002;7.788;2023-08-06T15:20:10;17.90;99.90
2002;DHT22;1003;48.002;7.788;2023-08-06T15:22:38;17.70;99.90
2002;DHT22;1003;48.002;7.788;2023-08-06T15:25:05;17.50;99.90
2002;DHT22;1003;48.002;7.788;2023-08-06T15:27:34;17.20;99.90
2002;DHT22;1003;48.002;7.788;2023-08-06T15:30:02;17.00;99.90
2002;DHT22;1003;48.002;7.788;2023-08-06T15:32:29;17.00;99.90
2002;DHT22;1003;48.002;7.788;2023-08-06T15:34:56;17.00;99.90
2002;DHT22;1003;48.002;7.788;2023-08-06T15:37:23;17.00;99.90
2002;DHT22;1003;48.002;7.788;2023-08-06T15:39:51;16.90;99.90
2002;DHT22;1003;48.002;7.788;2023-08-06T15:42:18;17.00;99.90
2002;DHT22;1003;48.002;7.788;2023-08-06T15:44:47;17.30;99.90
2002;DHT22;1003;48.002;7.788;2023-08-06T15:47:14;17.50;99.90
2002;DHT22;1003;48.002;7.788;2023-08-06T15:49:41;17.80;99.90
2002;DHT22;1003;48.002;7.788;2023-08-06T15:52:08;18.10;99.90
2002;DHT22;1003;48.002;7.788;2023-08-06T15:54:35;18.10;99.90
2002;DHT22;1003;48.002;7.788;2023-08-06T15:57:03;18.00;99.90
2002;DHT22;1003;48.002;7.788;2023-08-06T15:59:31;18.00;99.90
2002;DHT22;1003;48.002;7.788;2023-08-06T16:02:00;17.90;99.90
2002;DHT22;1003;48.002;7.788;2023-08-06T16:04:29;17.80;99.90
2002;DHT22;1003;48.002;7.788;2023-08-06T16:06:57;17.50;99.90
2002;DHT22;1003;48.002;7.788;2023-08-06T16:09:26;17.50;99.90